sensor_id;sensor_type;location;lat;lon;timestamp;pressure;altitude;pressure_sealevel;temperature;humidity
39773;BME280;25451;51.960;6.250;2023-09-07T00:00:41;101870.69;;;21.91;59.29
39773;BME280;25451;51.960;6.250;2023-09-07T00:03:06;101869.00;;;21.90;59.57
39773;BME280;25451;51.960;6.250;2023-09-07T00:05:31;101868.75;;;21.86;59.58
39773;BME280;25451;51.960;6.250;2023-09-07T00:07:57;101866.81;;;21.82;59.66
39773;BME280;25451;51.960;6.250;2023-09-07T00:10:23;101862.59;;;21.79;59.63
39773;BME280;25451;51.960;6.250;2023-09-07T00:12:48;101858.97;;;21.74;59.70
39773;BME280;25451;51.960;6.250;2023-09-07T00:15:14;101861.25;;;21.72;59.71
39773;BME280;25451;51.960;6.250;2023-09-07T00:17:39;101864.63;;;21.69;60.00
39773;BME280;25451;51.960;6.250;2023-09-07T00:20:04;101864.09;;;21.67;59.89
39773;BME280;25451;51.960;6.250;2023-09-07T00:22:39;101859.38;;;21.62;59.95
39773;BME280;25451;51.960;6.250;2023-09-07T00:25:05;101857.97;;;21.60;60.05
39773;BME280;25451;51.960;6.250;2023-09-07T00:27:33;101866.97;;;21.57;60.18
39773;BME280;25451;51.960;6.250;2023-09-07T00:29:59;101866.72;;;21.53;60.19
39773;BME280;25451;51.960;6.250;2023-09-07T00:32:24;101865.34;;;21.51;60.27
39773;BME280;25451;51.960;6.250;2023-09-07T00:34:49;101864.25;;;21.46;60.27
39773;BME280;25451;51.960;6.250;2023-09-07T00:37:14;101859.22;;;21.43;60.20
39773;BME280;25451;51.960;6.250;2023-09-07T00:39:40;101861.50;;;21.41;60.34
39773;BME280;25451;51.960;6.250;2023-09-07T00:42:05;101856.75;;;21.37;60.56
39773;BME280;25451;51.960;6.250;2023-09-07T00:44:30;101860.97;;;21.34;60.48
39773;BME280;25451;51.960;6.250;2023-09-07T00:46:59;101868.84;;;21.32;60.45
39773;BME280;25451;51.960;6.250;2023-09-07T00:49:25;101866.63;;;21.29;60.63
39773;BME280;25451;51.960;6.250;2023-09-07T00:51:51;101863.53;;;21.26;60.59
39773;BME280;25451;51.960;6.250;2023-09-07T00:54:17;101854.56;;;21.24;60.76
39773;BME280;25451;51.960;6.250;2023-09-07T00:56:43;101860.78;;;21.21;60.77
39773;BME280;25451;51.960;6.250;2023-09-07T00:59:09;101854.91;;;21.17;60.90
39773;BME280;25451;51.960;6.250;2023-09-07T01:01:36;101860.00;;;21.15;60.92
39773;BME280;25451;51.960;6.250;2023-09-07T01:04:01;101858.59;;;21.13;60.92
39773;BME280;25451;51.960;6.250;2023-09-07T01:06:52;101856.66;;;21.08;61.04
39773;BME280;25451;51.960;6.250;2023-09-07T01:09:21;101858.91;;;21.06;61.04
39773;BME280;25451;51.960;6.250;2023-09-07T01:11:48;101850.22;;;21.03;61.02
39773;BME280;25451;51.960;6.250;2023-09-07T01:14:15;101848.81;;;21.00;61.14
39773;BME280;25451;51.960;6.250;2023-09-07T01:16:40;101842.09;;;20.96;61.28
39773;BME280;25451;51.960;6.250;2023-09-07T01:19:06;101849.66;;;20.96;61.27
39773;BME280;25451;51.960;6.250;2023-09-07T01:21:34;101851.06;;;20.93;61.26
39773;BME280;25451;51.960;6.250;2023-09-07T01:24:10;101845.22;;;20.90;61.44
39773;BME280;25451;51.960;6.250;2023-09-07T01:26:37;101847.47;;;20.88;61.43
39773;BME280;25451;51.960;6.250;2023-09-07T01:29:06;101860.09;;;20.85;61.54
39773;BME280;25451;51.960;6.250;2023-09-07T01:31:37;101852.28;;;20.82;61.66
39773;BME280;25451;51.960;6.250;2023-09-07T01:34:03;101847.22;;;20.79;61.57
39773;BME280;25451;51.960;6.250;2023-09-07T01:36:29;101848.66;;;20.77;61.69
39773;BME280;25451;51.960;6.250;2023-09-07T01:38:54;101848.09;;;20.75;61.57
39773;BME280;25451;51.960;6.250;2023-09-07T01:41:20;101844.19;;;20.71;61.73
39773;BME280;25451;51.960;6.250;2023-09-07T01:43:45;101848.41;;;20.68;61.90
39773;BME280;25451;51.960;6.250;2023-09-07T01:46:10;101843.09;;;20.67;61.97
39773;BME280;25451;51.960;6.250;2023-09-07T01:48:36;101843.66;;;20.63;61.88
39773;BME280;25451;51.960;6.250;2023-09-07T01:51:01;101847.03;;;20.60;62.06
39773;BME280;25451;51.960;6.250;2023-09-07T01:53:26;101841.69;;;20.59;62.13
39773;BME280;25451;51.960;6.250;2023-09-07T01:55:54;101848.72;;;20.56;62.22
39773;BME280;25451;51.960;6.250;2023-09-07T01:58:20;101836.69;;;20.51;62.28
39773;BME280;25451;51.960;6.250;2023-09-07T02:00:46;101845.09;;;20.51;62.22
39773;BME280;25451;51.960;6.250;2023-09-07T02:03:11;101845.69;;;20.48;62.25
39773;BME280;25451;51.960;6.250;2023-09-07T02:05:36;101845.41;;;20.44;62.34
39773;BME280;25451;51.960;6.250;2023-09-07T02:08:02;101842.34;;;20.41;62.44
39773;BME280;25451;51.960;6.250;2023-09-07T02:10:29;101845.44;;;20.39;62.42
39773;BME280;25451;51.960;6.250;2023-09-07T02:12:55;101840.66;;;20.35;62.43
39773;BME280;25451;51.960;6.250;2023-09-07T02:15:23;101852.72;;;20.35;62.50
39773;BME280;25451;51.960;6.250;2023-09-07T02:17:48;101841.25;;;20.32;62.66
39773;BME280;25451;51.960;6.250;2023-09-07T02:20:14;101839.00;;;20.29;62.52
39773;BME280;25451;51.960;6.250;2023-09-07T02:22:39;101836.78;;;20.26;62.63
39773;BME280;25451;51.960;6.250;2023-09-07T02:25:05;101837.91;;;20.25;62.64
39773;BME280;25451;51.960;6.250;2023-09-07T02:27:32;101835.69;;;20.22;62.66
39773;BME280;25451;51.960;6.250;2023-09-07T02:29:57;101838.75;;;20.20;62.72
39773;BME280;25451;51.960;6.250;2023-09-07T02:32:22;101838.44;;;20.17;62.65
39773;BME280;25451;51.960;6.250;2023-09-07T02:34:48;101825.28;;;20.12;62.70
39773;BME280;25451;51.960;6.250;2023-09-07T02:37:13;101831.72;;;20.13;62.77
39773;BME280;25451;51.960;6.250;2023-09-07T02:39:39;101832.28;;;20.10;62.82
39773;BME280;25451;51.960;6.250;2023-09-07T02:42:05;101832.88;;;20.07;62.83
39773;BME280;25451;51.960;6.250;2023-09-07T02:44:31;101823.91;;;20.05;62.91
39773;BME280;25451;51.960;6.250;2023-09-07T02:46:56;101821.66;;;20.02;63.19
39773;BME280;25451;51.960;6.250;2023-09-07T02:49:21;101823.88;;;20.00;62.96
39773;BME280;25451;51.960;6.250;2023-09-07T02:51:47;101824.47;;;19.97;62.99
39773;BME280;25451;51.960;6.250;2023-09-07T02:54:12;101822.22;;;19.94;62.95
39773;BME280;25451;51.960;6.250;2023-09-07T02:56:37;101814.94;;;19.88;62.89
39773;BME280;25451;51.960;6.250;2023-09-07T02:59:02;101826.72;;;19.90;62.94
39773;BME280;25451;51.960;6.250;2023-09-07T03:01:28;101827.00;;;19.88;62.95
39773;BME280;25451;51.960;6.250;2023-09-07T03:03:54;101827.03;;;19.83;63.06
39773;BME280;25451;51.960;6.250;2023-09-07T03:06:19;101822.53;;;19.82;63.13
39773;BME280;25451;51.960;6.250;2023-09-07T03:08:45;101822.81;;;19.80;63.22
39773;BME280;25451;51.960;6.250;2023-09-07T03:11:11;101826.16;;;19.77;63.19
39773;BME280;25451;51.960;6.250;2023-09-07T03:13:37;101823.66;;;19.76;63.17
39773;BME280;25451;51.960;6.250;2023-09-07T03:16:03;101827.00;;;19.73;63.30
39773;BME280;25451;51.960;6.250;2023-09-07T03:18:29;101828.44;;;19.70;63.28
39773;BME280;25451;51.960;6.250;2023-09-07T03:20:57;101836.28;;;19.68;63.24
39773;BME280;25451;51.960;6.250;2023-09-07T03:23:23;101837.66;;;19.66;63.28
39773;BME280;25451;51.960;6.250;2023-09-07T03:25:48;101839.06;;;19.63;63.43
39773;BME280;25451;51.960;6.250;2023-09-07T03:28:14;101831.81;;;19.62;63.44
39773;BME280;25451;51.960;6.250;2023-09-07T03:30:39;101825.91;;;19.59;63.47
39773;BME280;25451;51.960;6.250;2023-09-07T03:33:05;101830.13;;;19.56;63.51
39773;BME280;25451;51.960;6.250;2023-09-07T03:35:31;101830.38;;;19.55;63.51
39773;BME280;25451;51.960;6.250;2023-09-07T03:37:56;101833.47;;;19.53;63.49
39773;BME280;25451;51.960;6.250;2023-09-07T03:40:22;101831.25;;;19.50;63.59
39773;BME280;25451;51.960;6.250;2023-09-07T03:42:47;101829.84;;;19.48;63.61
39773;BME280;25451;51.960;6.250;2023-09-07T03:45:12;101826.19;;;19.42;63.85
39773;BME280;25451;51.960;6.250;2023-09-07T03:47:38;101828.16;;;19.42;63.66
39773;BME280;25451;51.960;6.250;2023-09-07T03:50:04;101832.34;;;19.39;63.71
39773;BME280;25451;51.960;6.250;2023-09-07T03:52:29;101829.84;;;19.38;63.68
39773;BME280;25451;51.960;6.250;2023-09-07T03:54:56;101823.09;;;19.34;63.72
39773;BME280;25451;51.960;6.250;2023-09-07T03:57:22;101829.78;;;19.33;63.74
39773;BME280;25451;51.960;6.250;2023-09-07T03:59:47;101822.75;;;19.30;63.82
39773;BME280;25451;51.960;6.250;2023-09-07T04:02:13;101829.78;;;19.28;63.81
39773;BME280;25451;51.960;6.250;2023-09-07T04:04:40;101827.53;;;19.25;63.75
39773;BME280;25451;51.960;6.250;2023-09-07T04:07:05;101823.06;;;19.24;63.72
39773;BME280;25451;51.960;6.250;2023-09-07T04:09:31;101825.56;;;19.20;63.77
39773;BME280;25451;51.960;6.250;2023-09-07T04:11:56;101825.00;;;19.18;63.74
39773;BME280;25451;51.960;6.250;2023-09-07T04:14:21;101820.81;;;19.16;63.80
39773;BME280;25451;51.960;6.250;2023-09-07T04:16:46;101832.56;;;19.13;63.73
39773;BME280;25451;51.960;6.250;2023-09-07T04:19:12;101832.84;;;19.11;63.82
39773;BME280;25451;51.960;6.250;2023-09-07T04:21:37;101833.38;;;19.08;63.80
39773;BME280;25451;51.960;6.250;2023-09-07T04:24:03;101823.31;;;19.07;63.89
39773;BME280;25451;51.960;6.250;2023-09-07T04:26:29;101823.84;;;19.04;63.98
39773;BME280;25451;51.960;6.250;2023-09-07T04:28:54;101826.09;;;19.02;63.98
39773;BME280;25451;51.960;6.250;2023-09-07T04:31:20;101833.91;;;19.00;63.97
39773;BME280;25451;51.960;6.250;2023-09-07T04:33:46;101840.09;;;18.97;63.94
39773;BME280;25451;51.960;6.250;2023-09-07T04:36:15;101830.00;;;18.96;63.98
39773;BME280;25451;51.960;6.250;2023-09-07T04:38:41;101839.81;;;18.93;64.09
39773;BME280;25451;51.960;6.250;2023-09-07T04:41:10;101835.59;;;18.91;63.95
39773;BME280;25451;51.960;6.250;2023-09-07T04:43:36;101828.88;;;18.87;64.07
39773;BME280;25451;51.960;6.250;2023-09-07T04:46:01;101831.09;;;18.85;63.78
39773;BME280;25451;51.960;6.250;2023-09-07T04:48:27;101830.25;;;18.84;64.12
39773;BME280;25451;51.960;6.250;2023-09-07T04:50:59;101826.03;;;18.82;63.97
39773;BME280;25451;51.960;6.250;2023-09-07T04:53:24;101822.97;;;18.78;64.09
39773;BME280;25451;51.960;6.250;2023-09-07T04:55:50;101829.66;;;18.77;64.17
39773;BME280;25451;51.960;6.250;2023-09-07T04:58:15;101832.72;;;18.76;64.32
39773;BME280;25451;51.960;6.250;2023-09-07T05:00:40;101833.88;;;18.75;64.20
39773;BME280;25451;51.960;6.250;2023-09-07T05:03:06;101838.31;;;18.71;64.07
39773;BME280;25451;51.960;6.250;2023-09-07T05:05:31;101836.06;;;18.68;64.04
39773;BME280;25451;51.960;6.250;2023-09-07T05:07:56;101838.84;;;18.68;64.13
39773;BME280;25451;51.960;6.250;2023-09-07T05:10:22;101840.00;;;18.67;64.09
39773;BME280;25451;51.960;6.250;2023-09-07T05:12:47;101841.09;;;18.61;64.08
39773;BME280;25451;51.960;6.250;2023-09-07T05:15:12;101843.59;;;18.62;63.96
39773;BME280;25451;51.960;6.250;2023-09-07T05:17:37;101849.19;;;18.62;64.15
39773;BME280;25451;51.960;6.250;2023-09-07T05:20:03;101843.03;;;18.60;64.28
39773;BME280;25451;51.960;6.250;2023-09-07T05:22:29;101854.50;;;18.59;64.03
39773;BME280;25451;51.960;6.250;2023-09-07T05:24:55;101847.22;;;18.58;64.23
39773;BME280;25451;51.960;6.250;2023-09-07T05:27:20;101849.44;;;18.56;64.10
39773;BME280;25451;51.960;6.250;2023-09-07T05:29:45;101849.44;;;18.56;64.21
39773;BME280;25451;51.960;6.250;2023-09-07T05:32:11;101853.63;;;18.53;64.20
39773;BME280;25451;51.960;6.250;2023-09-07T05:34:36;101861.19;;;18.53;64.11
39773;BME280;25451;51.960;6.250;2023-09-07T05:37:01;101850.00;;;18.53;64.30
39773;BME280;25451;51.960;6.250;2023-09-07T05:39:26;101853.03;;;18.51;64.28
39773;BME280;25451;51.960;6.250;2023-09-07T05:41:52;101859.47;;;18.52;63.97
39773;BME280;25451;51.960;6.250;2023-09-07T05:44:17;101851.38;;;18.50;64.09
39773;BME280;25451;51.960;6.250;2023-09-07T05:46:42;101859.75;;;18.50;64.15
39773;BME280;25451;51.960;6.250;2023-09-07T05:49:08;101869.25;;;18.49;64.17
39773;BME280;25451;51.960;6.250;2023-09-07T05:51:33;101866.22;;;18.51;64.21
39773;BME280;25451;51.960;6.250;2023-09-07T05:53:58;101860.00;;;18.44;64.20
39773;BME280;25451;51.960;6.250;2023-09-07T05:56:24;101874.59;;;18.51;64.10
39773;BME280;25451;51.960;6.250;2023-09-07T05:58:49;101866.22;;;18.51;64.03
39773;BME280;25451;51.960;6.250;2023-09-07T06:01:14;101876.25;;;18.52;64.11
39773;BME280;25451;51.960;6.250;2023-09-07T06:03:40;101873.47;;;18.52;64.14
39773;BME280;25451;51.960;6.250;2023-09-07T06:06:06;101876.84;;;18.54;64.18
39773;BME280;25451;51.960;6.250;2023-09-07T06:08:31;101878.25;;;18.56;64.33
39773;BME280;25451;51.960;6.250;2023-09-07T06:10:57;101884.69;;;18.57;64.07
39773;BME280;25451;51.960;6.250;2023-09-07T06:13:22;101889.16;;;18.58;64.13
39773;BME280;25451;51.960;6.250;2023-09-07T06:15:47;101884.13;;;18.60;64.42
39773;BME280;25451;51.960;6.250;2023-09-07T06:18:13;101883.59;;;18.63;64.32
39773;BME280;25451;51.960;6.250;2023-09-07T06:20:38;101882.75;;;18.62;64.23
39773;BME280;25451;51.960;6.250;2023-09-07T06:23:03;101883.03;;;18.66;64.35
39773;BME280;25451;51.960;6.250;2023-09-07T06:25:29;101881.38;;;18.70;64.33
39773;BME280;25451;51.960;6.250;2023-09-07T06:27:54;101892.03;;;18.73;64.35
39773;BME280;25451;51.960;6.250;2023-09-07T06:30:19;101883.38;;;18.74;64.93
39773;BME280;25451;51.960;6.250;2023-09-07T06:32:45;101881.69;;;18.78;64.85
39773;BME280;25451;51.960;6.250;2023-09-07T06:35:10;101894.88;;;18.83;64.78
39773;BME280;25451;51.960;6.250;2023-09-07T06:37:36;101890.94;;;18.84;64.63
39773;BME280;25451;51.960;6.250;2023-09-07T06:40:05;101894.63;;;18.89;64.55
39773;BME280;25451;51.960;6.250;2023-09-07T06:42:31;101893.78;;;18.89;64.51
39773;BME280;25451;51.960;6.250;2023-09-07T06:44:56;101897.44;;;18.94;64.40
39773;BME280;25451;51.960;6.250;2023-09-07T06:47:22;101890.16;;;18.93;64.30
39773;BME280;25451;51.960;6.250;2023-09-07T06:49:47;101896.63;;;18.99;64.38
39773;BME280;25451;51.960;6.250;2023-09-07T06:52:12;101899.69;;;19.02;64.30
39773;BME280;25451;51.960;6.250;2023-09-07T06:54:38;101895.78;;;19.03;64.44
39773;BME280;25451;51.960;6.250;2023-09-07T06:57:06;101903.09;;;19.10;64.43
39773;BME280;25451;51.960;6.250;2023-09-07T06:59:32;101901.41;;;19.14;64.59
39773;BME280;25451;51.960;6.250;2023-09-07T07:01:58;101906.44;;;19.17;64.88
39773;BME280;25451;51.960;6.250;2023-09-07T07:04:25;101904.50;;;19.22;64.86
39773;BME280;25451;51.960;6.250;2023-09-07T07:06:50;101901.44;;;19.24;64.64
39773;BME280;25451;51.960;6.250;2023-09-07T07:09:15;101904.25;;;19.29;64.77
39773;BME280;25451;51.960;6.250;2023-09-07T07:11:41;101911.31;;;19.36;64.71
39773;BME280;25451;51.960;6.250;2023-09-07T07:14:08;101894.78;;;19.40;64.79
39773;BME280;25451;51.960;6.250;2023-09-07T07:16:34;101901.22;;;19.45;64.92
39773;BME280;25451;51.960;6.250;2023-09-07T07:18:59;101901.53;;;19.54;65.06
39773;BME280;25451;51.960;6.250;2023-09-07T07:21:24;101897.63;;;19.60;65.06
39773;BME280;25451;51.960;6.250;2023-09-07T07:23:50;101900.16;;;19.66;64.92
39773;BME280;25451;51.960;6.250;2023-09-07T07:26:15;101900.69;;;19.73;64.95
39773;BME280;25451;51.960;6.250;2023-09-07T07:28:41;101893.97;;;19.79;64.83
39773;BME280;25451;51.960;6.250;2023-09-07T07:31:07;101902.38;;;19.90;64.83
39773;BME280;25451;51.960;6.250;2023-09-07T07:33:34;101900.72;;;19.99;65.00
39773;BME280;25451;51.960;6.250;2023-09-07T07:36:00;101899.56;;;20.10;64.97
39773;BME280;25451;51.960;6.250;2023-09-07T07:38:25;101898.19;;;20.22;64.85
39773;BME280;25451;51.960;6.250;2023-09-07T07:40:50;101904.06;;;20.36;64.68
39773;BME280;25451;51.960;6.250;2023-09-07T07:43:17;101904.56;;;20.53;64.59
39773;BME280;25451;51.960;6.250;2023-09-07T07:45:43;101906.19;;;20.69;64.36
39773;BME280;25451;51.960;6.250;2023-09-07T07:48:08;101917.94;;;20.86;64.38
39773;BME280;25451;51.960;6.250;2023-09-07T07:50:40;101919.81;;;21.06;64.32
39773;BME280;25451;51.960;6.250;2023-09-07T07:53:06;101918.34;;;21.23;63.94
39773;BME280;25451;51.960;6.250;2023-09-07T07:55:36;101915.97;;;21.45;64.03
39773;BME280;25451;51.960;6.250;2023-09-07T07:58:05;101911.31;;;21.65;63.98
39773;BME280;25451;51.960;6.250;2023-09-07T08:00:32;101912.88;;;21.86;63.74
39773;BME280;25451;51.960;6.250;2023-09-07T08:02:58;101911.84;;;22.05;63.53
39773;BME280;25451;51.960;6.250;2023-09-07T08:05:23;101919.81;;;22.27;63.54
39773;BME280;25451;51.960;6.250;2023-09-07T08:07:48;101912.28;;;22.46;63.37
39773;BME280;25451;51.960;6.250;2023-09-07T08:10:14;101921.09;;;22.68;63.37
39773;BME280;25451;51.960;6.250;2023-09-07T08:12:39;101914.63;;;22.91;62.96
39773;BME280;25451;51.960;6.250;2023-09-07T08:15:05;101914.88;;;23.14;62.95
39773;BME280;25451;51.960;6.250;2023-09-07T08:17:30;101918.59;;;23.33;62.92
39773;BME280;25451;51.960;6.250;2023-09-07T08:19:56;101913.19;;;23.55;62.89
39773;BME280;25451;51.960;6.250;2023-09-07T08:22:22;101915.69;;;23.75;62.43
39773;BME280;25451;51.960;6.250;2023-09-07T08:24:47;101917.66;;;23.93;62.58
39773;BME280;25451;51.960;6.250;2023-09-07T08:27:14;101911.69;;;24.13;62.59
39773;BME280;25451;51.960;6.250;2023-09-07T08:29:44;101907.34;;;24.34;62.39
39773;BME280;25451;51.960;6.250;2023-09-07T08:32:12;101913.47;;;24.55;62.35
39773;BME280;25451;51.960;6.250;2023-09-07T08:34:39;101911.91;;;24.76;62.29
39773;BME280;25451;51.960;6.250;2023-09-07T08:37:06;101905.03;;;24.96;62.17
39773;BME280;25451;51.960;6.250;2023-09-07T08:39:36;101905.44;;;25.16;62.07
39773;BME280;25451;51.960;6.250;2023-09-07T08:42:05;101906.63;;;25.37;61.70
39773;BME280;25451;51.960;6.250;2023-09-07T08:44:32;101901.69;;;25.57;61.63
39773;BME280;25451;51.960;6.250;2023-09-07T08:46:59;101904.88;;;25.77;61.47
39773;BME280;25451;51.960;6.250;2023-09-07T08:49:26;101901.84;;;25.96;61.26
39773;BME280;25451;51.960;6.250;2023-09-07T08:51:53;101905.31;;;26.15;60.98
39773;BME280;25451;51.960;6.250;2023-09-07T08:54:19;101897.78;;;26.33;60.38
39773;BME280;25451;51.960;6.250;2023-09-07T08:56:46;101896.72;;;26.51;60.17
39773;BME280;25451;51.960;6.250;2023-09-07T08:59:12;101893.94;;;26.68;60.20
39773;BME280;25451;51.960;6.250;2023-09-07T09:01:37;101892.38;;;26.84;59.72
39773;BME280;25451;51.960;6.250;2023-09-07T09:04:03;101895.25;;;27.01;59.57
39773;BME280;25451;51.960;6.250;2023-09-07T09:06:28;101907.66;;;27.22;59.40
39773;BME280;25451;51.960;6.250;2023-09-07T09:08:55;101897.72;;;27.42;59.18
39773;BME280;25451;51.960;6.250;2023-09-07T09:11:22;101905.91;;;27.60;58.98
39773;BME280;25451;51.960;6.250;2023-09-07T09:13:49;101897.38;;;27.77;58.77
39773;BME280;25451;51.960;6.250;2023-09-07T09:16:15;101896.53;;;27.94;58.62
39773;BME280;25451;51.960;6.250;2023-09-07T09:18:50;101898.53;;;28.11;58.28
39773;BME280;25451;51.960;6.250;2023-09-07T09:21:21;101896.50;;;28.28;58.08
39773;BME280;25451;51.960;6.250;2023-09-07T09:23:49;101895.13;;;28.43;57.64
39773;BME280;25451;51.960;6.250;2023-09-07T09:26:17;101894.25;;;28.59;57.18
39773;BME280;25451;51.960;6.250;2023-09-07T09:28:43;101890.03;;;28.74;56.55
39773;BME280;25451;51.960;6.250;2023-09-07T09:31:10;101885.41;;;28.90;56.28
39773;BME280;25451;51.960;6.250;2023-09-07T09:33:38;101894.19;;;29.06;55.76
39773;BME280;25451;51.960;6.250;2023-09-07T09:36:03;101897.66;;;29.20;55.28
39773;BME280;25451;51.960;6.250;2023-09-07T09:38:30;101896.56;;;29.33;55.07
39773;BME280;25451;51.960;6.250;2023-09-07T09:40:58;101895.47;;;29.46;54.19
39773;BME280;25451;51.960;6.250;2023-09-07T09:43:24;101898.03;;;29.60;53.91
39773;BME280;25451;51.960;6.250;2023-09-07T09:45:50;101887.06;;;29.70;53.65
39773;BME280;25451;51.960;6.250;2023-09-07T09:48:18;101888.47;;;29.85;52.95
39773;BME280;25451;51.960;6.250;2023-09-07T09:50:46;101879.13;;;29.96;52.50
39773;BME280;25451;51.960;6.250;2023-09-07T09:53:12;101882.38;;;30.07;52.11
39773;BME280;25451;51.960;6.250;2023-09-07T09:55:41;101873.88;;;30.19;51.63
39773;BME280;25451;51.960;6.250;2023-09-07T09:58:06;101875.44;;;30.28;51.42
39773;BME280;25451;51.960;6.250;2023-09-07T10:00:32;101873.00;;;30.39;50.92
39773;BME280;25451;51.960;6.250;2023-09-07T10:03:06;101869.34;;;30.51;50.63
39773;BME280;25451;51.960;6.250;2023-09-07T10:05:32;101877.09;;;30.62;50.68
39773;BME280;25451;51.960;6.250;2023-09-07T10:08:08;101858.19;;;30.70;50.06
39773;BME280;25451;51.960;6.250;2023-09-07T10:10:35;101867.59;;;30.82;50.10
39773;BME280;25451;51.960;6.250;2023-09-07T10:13:01;101860.25;;;30.93;49.73
39773;BME280;25451;51.960;6.250;2023-09-07T10:15:27;101859.41;;;31.05;49.66
39773;BME280;25451;51.960;6.250;2023-09-07T10:18:13;101854.03;;;31.16;48.78
39773;BME280;25451;51.960;6.250;2023-09-07T10:20:52;101855.22;;;31.27;48.76
39773;BME280;25451;51.960;6.250;2023-09-07T10:23:19;101845.56;;;31.31;48.06
39773;BME280;25451;51.960;6.250;2023-09-07T10:25:52;101854.50;;;31.42;47.71
39773;BME280;25451;51.960;6.250;2023-09-07T10:28:22;101847.81;;;31.50;47.17
39773;BME280;25451;51.960;6.250;2023-09-07T10:31:09;101849.22;;;31.56;47.16
39773;BME280;25451;51.960;6.250;2023-09-07T10:33:38;101845.63;;;31.59;47.25
39773;BME280;25451;51.960;6.250;2023-09-07T10:36:04;101851.34;;;31.59;47.14
39773;BME280;25451;51.960;6.250;2023-09-07T10:38:34;101844.31;;;31.56;46.22
39773;BME280;25451;51.960;6.250;2023-09-07T10:41:01;101843.38;;;31.52;46.09
39773;BME280;25451;51.960;6.250;2023-09-07T10:43:31;101835.94;;;31.36;45.76
39773;BME280;25451;51.960;6.250;2023-09-07T10:45:58;101828.50;;;31.19;45.35
39773;BME280;25451;51.960;6.250;2023-09-07T10:48:29;101833.84;;;31.08;45.53
39773;BME280;25451;51.960;6.250;2023-09-07T10:50:54;101839.09;;;31.06;45.41
39773;BME280;25451;51.960;6.250;2023-09-07T10:53:28;101830.06;;;31.04;45.27
39773;BME280;25451;51.960;6.250;2023-09-07T10:55:56;101823.88;;;31.02;45.79
39773;BME280;25451;51.960;6.250;2023-09-07T10:58:40;101817.81;;;31.04;45.41
39773;BME280;25451;51.960;6.250;2023-09-07T11:01:06;101823.63;;;31.07;45.42
39773;BME280;25451;51.960;6.250;2023-09-07T11:03:32;101824.69;;;31.15;44.95
39773;BME280;25451;51.960;6.250;2023-09-07T11:06:06;101814.22;;;31.19;45.12
39773;BME280;25451;51.960;6.250;2023-09-07T11:08:34;101804.69;;;31.27;44.79
39773;BME280;25451;51.960;6.250;2023-09-07T11:11:01;101801.81;;;31.39;44.32
39773;BME280;25451;51.960;6.250;2023-09-07T11:13:28;101801.78;;;31.51;44.19
39773;BME280;25451;51.960;6.250;2023-09-07T11:15:54;101804.94;;;31.62;44.37
39773;BME280;25451;51.960;6.250;2023-09-07T11:18:20;101805.59;;;31.71;44.16
39773;BME280;25451;51.960;6.250;2023-09-07T11:20:49;101808.56;;;31.74;43.90
39773;BME280;25451;51.960;6.250;2023-09-07T11:23:17;101806.53;;;31.75;44.15
39773;BME280;25451;51.960;6.250;2023-09-07T11:25:42;101809.16;;;31.80;44.21
39773;BME280;25451;51.960;6.250;2023-09-07T11:28:08;101807.22;;;31.84;44.31
39773;BME280;25451;51.960;6.250;2023-09-07T11:30:34;101810.25;;;31.91;44.18
39773;BME280;25451;51.960;6.250;2023-09-07T11:33:07;101803.88;;;31.94;43.71
39773;BME280;25451;51.960;6.250;2023-09-07T11:35:35;101802.19;;;31.93;43.69
39773;BME280;25451;51.960;6.250;2023-09-07T11:38:03;101801.94;;;31.98;43.42
39773;BME280;25451;51.960;6.250;2023-09-07T11:40:33;101802.56;;;32.07;43.17
39773;BME280;25451;51.960;6.250;2023-09-07T11:42:59;101792.91;;;32.12;43.32
39773;BME280;25451;51.960;6.250;2023-09-07T11:45:24;101799.47;;;32.28;43.13
39773;BME280;25451;51.960;6.250;2023-09-07T11:47:50;101795.69;;;32.39;42.77
39773;BME280;25451;51.960;6.250;2023-09-07T11:50:18;101789.81;;;32.48;41.96
39773;BME280;25451;51.960;6.250;2023-09-07T11:52:47;101788.13;;;32.62;41.58
39773;BME280;25451;51.960;6.250;2023-09-07T11:55:15;101793.22;;;32.69;41.38
39773;BME280;25451;51.960;6.250;2023-09-07T11:57:40;101783.44;;;32.70;41.00
39773;BME280;25451;51.960;6.250;2023-09-07T12:00:10;101780.47;;;32.66;40.86
39773;BME280;25451;51.960;6.250;2023-09-07T12:02:36;101781.50;;;32.58;40.91
39773;BME280;25451;51.960;6.250;2023-09-07T12:05:01;101779.66;;;32.50;40.96
39773;BME280;25451;51.960;6.250;2023-09-07T12:07:29;101774.84;;;32.39;40.70
39773;BME280;25451;51.960;6.250;2023-09-07T12:09:55;101775.97;;;32.34;40.87
39773;BME280;25451;51.960;6.250;2023-09-07T12:12:23;101767.31;;;32.31;40.76
39773;BME280;25451;51.960;6.250;2023-09-07T12:14:48;101779.47;;;32.28;40.90
39773;BME280;25451;51.960;6.250;2023-09-07T12:17:13;101768.88;;;32.13;41.24
39773;BME280;25451;51.960;6.250;2023-09-07T12:19:39;101763.50;;;31.96;41.24
39773;BME280;25451;51.960;6.250;2023-09-07T12:22:07;101758.66;;;31.84;41.30
39773;BME280;25451;51.960;6.250;2023-09-07T12:24:33;101747.78;;;31.74;41.44
39773;BME280;25451;51.960;6.250;2023-09-07T12:26:58;101759.91;;;31.71;41.13
39773;BME280;25451;51.960;6.250;2023-09-07T12:29:25;101748.03;;;31.69;40.95
39773;BME280;25451;51.960;6.250;2023-09-07T12:31:50;101751.19;;;31.64;40.86
39773;BME280;25451;51.960;6.250;2023-09-07T12:34:15;101742.84;;;31.59;40.82
39773;BME280;25451;51.960;6.250;2023-09-07T12:36:41;101757.03;;;31.55;40.97
39773;BME280;25451;51.960;6.250;2023-09-07T12:39:06;101755.66;;;31.49;40.58
39773;BME280;25451;51.960;6.250;2023-09-07T12:41:32;101745.69;;;31.43;41.07
39773;BME280;25451;51.960;6.250;2023-09-07T12:43:57;101749.63;;;31.39;41.37
39773;BME280;25451;51.960;6.250;2023-09-07T12:46:22;101744.13;;;31.34;41.18